createdAt,value
2022-11-06T00:01:15.180Z,33.03
2022-11-06T00:03:44.769Z,30.20
2022-11-06T00:06:36.532Z,32.38
2022-11-06T00:09:08.816Z,31.07
2022-11-06T00:11:39.351Z,31.10
2022-11-06T00:14:08.016Z,29.55
2022-11-06T00:16:41.219Z,28.08
2022-11-06T00:19:18.988Z,16.83
2022-11-06T00:21:48.734Z,17.48
2022-11-06T00:24:17.169Z,16.30
2022-11-06T00:26:48.734Z,18.20
2022-11-06T00:29:20.580Z,18.75
2022-11-06T00:31:50.460Z,19.00
2022-11-06T00:34:18.944Z,19.58
2022-11-06T00:36:47.614Z,19.30
2022-11-06T00:39:15.870Z,18.75
2022-11-06T00:41:44.638Z,19.20
2022-11-06T00:44:12.997Z,18.35
2022-11-06T00:46:41.830Z,25.30
2022-11-06T00:49:10.277Z,29.35
2022-11-06T00:51:39.720Z,25.25
2022-11-06T00:54:11.152Z,24.77
2022-11-06T00:56:40.770Z,24.45
2022-11-06T00:59:12.402Z,24.75
2022-11-06T01:04:18.802Z,24.80
2022-11-06T01:06:50.415Z,25.90
2022-11-06T01:09:23.727Z,26.50
2022-11-06T01:14:46.634Z,21.42
2022-11-06T01:17:15.748Z,25.20
2022-11-06T01:19:43.984Z,25.42
2022-11-06T01:22:12.664Z,27.42
2022-11-06T01:24:41.528Z,27.83
2022-11-06T01:27:27.281Z,33.17
2022-11-06T01:29:57.172Z,35.30
2022-11-06T01:32:25.934Z,26.05
2022-11-06T01:34:54.416Z,26.25
2022-11-06T01:37:23.495Z,22.48
2022-11-06T01:39:52.201Z,22.15
2022-11-06T01:42:22.038Z,21.77
2022-11-06T01:45:24.916Z,21.92
2022-11-06T01:47:53.753Z,21.58
2022-11-06T01:50:22.729Z,17.42
2022-11-06T01:52:52.335Z,16.58
2022-11-06T01:55:27.377Z,16.85
2022-11-06T01:57:57.093Z,18.27
2022-11-06T02:00:26.323Z,18.08
2022-11-06T02:02:55.898Z,16.70
2022-11-06T02:05:24.408Z,15.90
2022-11-06T02:07:56.091Z,15.73
2022-11-06T02:10:24.546Z,17.20
2022-11-06T02:13:03.014Z,19.52
2022-11-06T02:15:43.818Z,19.83
2022-11-06T02:18:46.509Z,21.48
2022-11-06T02:24:25.143Z,17.33
2022-11-06T02:27:17.295Z,16.92
2022-11-06T02:30:04.059Z,17.65
2022-11-06T02:32:46.284Z,18.52
2022-11-06T02:35:41.109Z,16.58
2022-11-06T02:38:17.605Z,17.80
2022-11-06T02:40:54.422Z,18.40
2022-11-06T02:43:28.542Z,20.33
2022-11-06T02:46:05.639Z,18.17
2022-11-06T02:48:41.374Z,20.88
2022-11-06T02:51:13.667Z,18.75
2022-11-06T02:53:46.019Z,19.83
2022-11-06T02:56:28.664Z,18.42
2022-11-06T03:02:05.652Z,19.58
2022-11-06T03:04:45.679Z,20.88
2022-11-06T03:07:25.667Z,21.67
2022-11-06T03:09:54.065Z,19.73
2022-11-06T03:12:32.728Z,20.38
2022-11-06T03:15:19.299Z,22.42
2022-11-06T03:17:50.583Z,22.45
2022-11-06T03:20:39.202Z,22.17
2022-11-06T03:23:25.300Z,21.33
2022-11-06T03:26:01.274Z,24.02
2022-11-06T03:28:38.685Z,23.90
2022-11-06T03:31:11.880Z,24.17
2022-11-06T03:33:47.542Z,24.08
2022-11-06T03:36:23.260Z,23.35
2022-11-06T03:38:56.527Z,23.80
2022-11-06T03:41:31.572Z,24.02
2022-11-06T03:44:04.002Z,23.38
2022-11-06T03:46:37.463Z,24.15
2022-11-06T03:49:11.143Z,26.40
2022-11-06T03:52:07.279Z,22.98
2022-11-06T03:54:42.543Z,25.00
2022-11-06T03:57:23.859Z,25.08
2022-11-06T03:59:59.136Z,25.35
2022-11-06T04:02:32.029Z,25.95
2022-11-06T04:05:07.138Z,23.63
2022-11-06T04:07:39.302Z,24.63
2022-11-06T04:10:30.109Z,24.27
2022-11-06T04:13:18.919Z,23.75
2022-11-06T04:15:54.135Z,25.17
2022-11-06T04:18:22.450Z,25.88
2022-11-06T04:21:27.046Z,28.63
2022-11-06T04:24:28.028Z,28.48
2022-11-06T04:27:18.139Z,25.27
2022-11-06T04:30:08.777Z,24.13
2022-11-06T04:33:06.095Z,22.45
2022-11-06T04:35:43.185Z,21.08
2022-11-06T04:38:34.506Z,21.98
2022-11-06T04:41:17.496Z,22.50
2022-11-06T04:43:57.934Z,21.88
2022-11-06T04:46:33.746Z,20.52
2022-11-06T04:49:06.403Z,21.15
2022-11-06T04:51:38.249Z,22.02
2022-11-06T04:54:10.333Z,20.95
2022-11-06T04:56:43.047Z,18.35
2022-11-06T04:59:17.717Z,22.13
2022-11-06T05:01:47.148Z,25.13
2022-11-06T05:04:16.215Z,22.67
2022-11-06T05:06:45.585Z,20.65
2022-11-06T05:09:14.309Z,20.80
2022-11-06T05:11:42.648Z,20.33
2022-11-06T05:14:11.556Z,20.25
2022-11-06T05:16:40.022Z,19.20
2022-11-06T05:19:08.707Z,18.60
2022-11-06T05:21:55.394Z,17.98
2022-11-06T05:24:24.159Z,16.77
2022-11-06T05:26:58.916Z,17.10
2022-11-06T05:29:28.564Z,17.08
2022-11-06T05:31:56.773Z,16.17
2022-11-06T05:34:50.861Z,17.17
2022-11-06T05:37:19.139Z,18.42
2022-11-06T05:39:48.201Z,19.80
2022-11-06T05:42:16.536Z,18.20
2022-11-06T05:44:45.642Z,20.13
2022-11-06T05:47:14.054Z,20.73
2022-11-06T05:49:42.728Z,21.20
2022-11-06T05:52:11.280Z,19.38
2022-11-06T05:54:39.922Z,21.92
2022-11-06T05:57:08.202Z,18.40
2022-11-06T05:59:37.341Z,17.15
2022-11-06T06:02:05.949Z,16.85
2022-11-06T06:04:34.661Z,18.38
2022-11-06T06:07:03.075Z,18.10
2022-11-06T06:09:31.766Z,18.15
2022-11-06T06:12:00.051Z,18.42
2022-11-06T06:14:28.677Z,19.90
2022-11-06T06:16:56.958Z,22.33
2022-11-06T06:19:25.654Z,20.23
2022-11-06T06:21:54.839Z,21.83
2022-11-06T06:24:24.289Z,23.88
2022-11-06T06:26:52.616Z,23.55
2022-11-06T06:29:21.997Z,26.98
2022-11-06T06:31:50.409Z,33.53
2022-11-06T06:34:19.601Z,37.58
2022-11-06T06:36:52.203Z,37.60
2022-11-06T06:39:21.305Z,30.70
2022-11-06T06:41:50.174Z,43.17
2022-11-06T06:44:18.909Z,44.95
2022-11-06T06:46:47.110Z,36.17
2022-11-06T06:49:15.708Z,30.27
2022-11-06T06:51:44.034Z,32.10
2022-11-06T06:54:12.820Z,31.35
2022-11-06T06:56:41.216Z,40.50
2022-11-06T06:59:09.936Z,57.40
2022-11-06T07:01:38.433Z,50.47
2022-11-06T07:04:07.150Z,46.13
2022-11-06T07:06:36.437Z,55.80
2022-11-06T07:09:05.193Z,47.92
2022-11-06T07:11:33.494Z,57.53
2022-11-06T07:14:02.534Z,73.50
2022-11-06T07:16:32.652Z,66.43
2022-11-06T07:19:02.070Z,55.78
2022-11-06T07:21:30.623Z,94.57
2022-11-06T07:23:59.252Z,94.72
2022-11-06T07:26:28.557Z,99.03
2022-11-06T07:28:57.140Z,97.35
2022-11-06T07:31:25.445Z,98.22
2022-11-06T07:33:54.302Z,87.13
2022-11-06T07:36:22.518Z,73.18
2022-11-06T07:38:51.496Z,72.90
2022-11-06T07:41:19.780Z,45.60
2022-11-06T07:43:49.825Z,51.83
2022-11-06T07:46:19.481Z,44.70
2022-11-06T07:48:48.626Z,35.85
2022-11-06T07:51:17.140Z,36.75
2022-11-06T07:53:45.806Z,33.85
2022-11-06T07:56:14.153Z,29.83
2022-11-06T07:58:42.833Z,30.45
2022-11-06T08:01:19.170Z,31.95
2022-11-06T08:03:48.551Z,33.35
2022-11-06T08:06:17.107Z,34.90
2022-11-06T08:08:45.870Z,36.67
2022-11-06T08:11:14.930Z,49.50
2022-11-06T08:13:44.272Z,45.60
2022-11-06T08:16:14.830Z,37.28
2022-11-06T08:18:43.868Z,33.13
2022-11-06T08:21:12.173Z,29.92
2022-11-06T08:23:40.814Z,27.90
2022-11-06T08:26:09.431Z,20.90
2022-11-06T08:28:38.620Z,21.88
2022-11-06T08:31:08.427Z,24.15
2022-11-06T08:33:38.653Z,21.95
2022-11-06T08:36:08.356Z,29.70
2022-11-06T08:38:37.023Z,33.17
2022-11-06T08:41:07.473Z,29.92
2022-11-06T08:43:36.922Z,30.50
2022-11-06T08:46:07.039Z,30.00
2022-11-06T08:48:36.529Z,24.40
2022-11-06T08:51:06.499Z,21.35
2022-11-06T08:53:35.514Z,20.73
2022-11-06T08:56:54.065Z,23.27
2022-11-06T08:59:22.677Z,18.40
2022-11-06T09:01:51.158Z,19.83
2022-11-06T09:04:20.780Z,19.20
2022-11-06T09:06:49.283Z,16.33
2022-11-06T09:09:18.518Z,13.30
2022-11-06T09:11:46.782Z,12.85
2022-11-06T09:14:15.454Z,13.45
2022-11-06T09:16:45.703Z,12.30
2022-11-06T09:19:20.322Z,11.25
2022-11-06T09:21:54.515Z,12.13
2022-11-06T09:24:43.165Z,12.93
2022-11-06T09:27:12.492Z,12.50
2022-11-06T09:29:44.109Z,12.52
2022-11-06T09:32:15.615Z,13.00
2022-11-06T09:34:44.322Z,12.30
2022-11-06T09:37:12.788Z,12.75
2022-11-06T09:39:41.500Z,12.55
2022-11-06T09:42:46.253Z,12.18
2022-11-06T09:45:23.250Z,10.98
2022-11-06T09:48:11.403Z,11.75
2022-11-06T09:50:56.409Z,11.52
2022-11-06T09:53:27.681Z,11.35
2022-11-06T09:55:58.181Z,11.73
2022-11-06T09:58:40.557Z,10.35
2022-11-06T10:04:04.102Z,22.88
2022-11-06T10:06:33.146Z,9.88
2022-11-06T10:09:04.001Z,11.32
2022-11-06T10:12:02.964Z,10.53
2022-11-06T10:15:12.738Z,11.13
2022-11-06T10:17:50.641Z,10.95
2022-11-06T10:20:44.093Z,11.13
2022-11-06T10:23:21.280Z,9.43
2022-11-06T10:26:21.607Z,9.88
2022-11-06T10:28:56.168Z,9.15
2022-11-06T10:31:49.082Z,9.88
2022-11-06T10:34:52.707Z,9.55
2022-11-06T10:37:26.850Z,8.40
2022-11-06T10:39:57.315Z,8.35
2022-11-06T10:42:38.261Z,9.20
2022-11-06T10:45:15.270Z,9.25
2022-11-06T10:47:56.086Z,8.73
2022-11-06T10:50:32.510Z,8.52
2022-11-06T10:53:16.511Z,8.45
2022-11-06T10:56:34.264Z,8.68
2022-11-06T10:59:02.996Z,8.10
2022-11-06T11:01:32.279Z,8.60
2022-11-06T11:04:01.442Z,8.23
2022-11-06T11:06:30.243Z,9.10
2022-11-06T11:08:58.442Z,7.85
2022-11-06T11:11:28.853Z,8.30
2022-11-06T11:13:57.123Z,9.23
2022-11-06T11:16:30.158Z,8.43
2022-11-06T11:19:33.663Z,8.65
2022-11-06T11:22:30.341Z,7.93
2022-11-06T11:25:27.765Z,8.88
2022-11-06T11:27:58.659Z,8.15
2022-11-06T11:30:32.282Z,7.82
2022-11-06T11:33:14.785Z,7.50
2022-11-06T11:35:52.554Z,7.75
2022-11-06T11:38:26.543Z,7.75
2022-11-06T11:41:35.404Z,8.13
2022-11-06T11:44:21.201Z,8.63
2022-11-06T11:46:52.732Z,8.25
2022-11-06T11:49:34.158Z,7.88
2022-11-06T11:52:42.967Z,8.95
2022-11-06T11:55:18.779Z,7.82
2022-11-06T11:57:56.749Z,7.68
2022-11-06T12:00:26.317Z,8.77
2022-11-06T12:02:59.875Z,8.30
2022-11-06T12:05:41.093Z,7.97
2022-11-06T12:09:25.113Z,7.63
2022-11-06T12:11:56.444Z,8.05
2022-11-06T12:18:21.730Z,7.07
2022-11-06T12:20:56.255Z,6.80
2022-11-06T12:23:50.998Z,6.55
2022-11-06T12:27:01.785Z,5.93
2022-11-06T12:29:42.309Z,5.57
2022-11-06T12:32:18.410Z,5.45
2022-11-06T12:35:10.454Z,6.15
2022-11-06T12:37:58.319Z,5.50
2022-11-06T12:40:32.196Z,4.80
2022-11-06T12:43:05.974Z,4.95
2022-11-06T12:45:49.095Z,5.28
2022-11-06T12:48:17.604Z,4.38
2022-11-06T12:51:06.720Z,4.35
2022-11-06T12:54:01.215Z,4.20
2022-11-06T12:56:59.947Z,4.70
2022-11-06T12:59:48.051Z,4.70
2022-11-06T13:02:52.482Z,4.30
2022-11-06T13:05:33.465Z,4.85
2022-11-06T13:08:43.725Z,4.60
2022-11-06T13:11:25.764Z,4.55
2022-11-06T13:14:06.576Z,4.40
2022-11-06T13:16:42.341Z,4.65
2022-11-06T13:19:39.715Z,4.65
2022-11-06T13:22:33.379Z,4.50
2022-11-06T13:25:28.040Z,4.82
2022-11-06T13:28:08.457Z,5.68
2022-11-06T13:30:38.610Z,5.57
2022-11-06T13:33:11.869Z,7.20
2022-11-06T13:35:43.476Z,6.85
2022-11-06T13:41:31.482Z,7.80
2022-11-06T13:44:11.341Z,7.07
2022-11-06T13:46:49.883Z,7.00
2022-11-06T13:49:31.013Z,7.57
2022-11-06T13:52:11.061Z,7.75
2022-11-06T13:55:19.102Z,8.20
2022-11-06T13:57:59.437Z,7.72
2022-11-06T14:00:49.265Z,7.60
2022-11-06T14:03:34.533Z,7.60
2022-11-06T14:06:07.111Z,7.43
2022-11-06T14:08:47.730Z,7.05
2022-11-06T14:11:26.192Z,7.20
2022-11-06T14:14:03.773Z,6.82
2022-11-06T14:16:37.653Z,6.40
2022-11-06T14:19:27.001Z,5.85
2022-11-06T14:22:25.170Z,6.68
2022-11-06T14:25:00.001Z,6.00
2022-11-06T14:27:31.708Z,6.40
2022-11-06T14:30:03.042Z,6.65
2022-11-06T14:32:31.693Z,7.00
2022-11-06T14:35:38.525Z,7.18
2022-11-06T14:38:10.212Z,9.55
2022-11-06T14:40:39.869Z,8.93
2022-11-06T14:43:48.401Z,9.02
2022-11-06T14:47:22.690Z,8.13
2022-11-06T14:50:04.692Z,8.95
2022-11-06T14:53:15.703Z,10.07
2022-11-06T14:56:09.990Z,11.18
2022-11-06T14:58:49.682Z,16.23
2022-11-06T15:01:30.437Z,14.82
2022-11-06T15:04:05.052Z,12.15
2022-11-06T15:06:33.458Z,9.82
2022-11-06T15:09:56.739Z,9.13
2022-11-06T15:15:26.964Z,10.48
2022-11-06T15:17:58.537Z,9.60
2022-11-06T15:20:34.799Z,9.23
2022-11-06T15:23:44.891Z,8.95
2022-11-06T15:26:32.505Z,10.30
2022-11-06T15:29:13.382Z,9.55
2022-11-06T15:31:56.195Z,18.17
2022-11-06T15:34:38.338Z,38.05
2022-11-06T15:37:12.284Z,37.42
2022-11-06T15:40:07.527Z,41.53
2022-11-06T15:42:37.350Z,18.55
2022-11-06T15:45:19.565Z,18.52
2022-11-06T15:48:04.822Z,23.40
2022-11-06T15:50:37.694Z,21.17
2022-11-06T15:53:12.726Z,22.52
2022-11-06T15:55:48.842Z,26.25
2022-11-06T15:58:25.677Z,30.10
2022-11-06T16:00:56.796Z,29.55
2022-11-06T16:03:28.489Z,26.08
2022-11-06T16:06:01.347Z,30.77
2022-11-06T16:08:32.830Z,33.15
2022-11-06T16:11:02.386Z,33.45
2022-11-06T16:13:31.792Z,25.77
2022-11-06T16:16:04.232Z,13.27
2022-11-06T16:18:41.304Z,10.15
2022-11-06T16:21:13.598Z,11.90
2022-11-06T16:23:53.160Z,11.52
2022-11-06T16:26:26.066Z,11.32
2022-11-06T16:28:56.600Z,11.13
2022-11-06T16:31:28.248Z,13.48
2022-11-06T16:34:07.638Z,14.18
2022-11-06T16:37:01.593Z,10.55
2022-11-06T16:39:47.851Z,11.40
2022-11-06T16:42:42.622Z,12.13
2022-11-06T16:45:21.351Z,11.80
2022-11-06T16:48:08.196Z,13.40
2022-11-06T16:50:46.580Z,12.77
2022-11-06T16:53:23.655Z,12.38
2022-11-06T16:56:22.767Z,15.55
2022-11-06T16:59:05.070Z,19.42
2022-11-06T17:02:26.277Z,36.47
2022-11-06T17:05:18.908Z,86.72
2022-11-06T17:07:49.095Z,65.25
2022-11-06T17:10:42.152Z,57.78
2022-11-06T17:13:15.709Z,43.03
2022-11-06T17:16:05.148Z,35.95
2022-11-06T17:18:43.379Z,31.65
2022-11-06T17:21:25.091Z,28.38
2022-11-06T17:27:07.979Z,25.15
2022-11-06T17:29:40.436Z,28.40
2022-11-06T17:32:16.383Z,28.85
2022-11-06T17:34:45.255Z,29.00
2022-11-06T17:37:14.120Z,31.33
2022-11-06T17:39:50.425Z,31.08
2022-11-06T17:43:13.279Z,35.25
2022-11-06T17:46:38.904Z,35.80
2022-11-06T17:49:08.928Z,37.67
2022-11-06T17:52:04.116Z,38.63
2022-11-06T17:54:37.733Z,35.00
2022-11-06T17:57:08.184Z,30.35
2022-11-06T18:00:23.277Z,28.92
2022-11-06T18:03:17.993Z,28.08
2022-11-06T18:05:55.356Z,25.98
2022-11-06T18:08:30.111Z,26.13
2022-11-06T18:10:58.617Z,24.65
2022-11-06T18:13:27.300Z,28.83
2022-11-06T18:15:55.774Z,25.60
2022-11-06T18:18:27.167Z,24.65
2022-11-06T18:20:55.525Z,24.63
2022-11-06T18:23:24.375Z,25.10
2022-11-06T18:25:58.617Z,25.17
2022-11-06T18:28:27.356Z,27.77
2022-11-06T18:30:57.581Z,27.48
2022-11-06T18:33:29.725Z,35.55
2022-11-06T18:36:06.676Z,30.65
2022-11-06T18:38:45.790Z,32.15
2022-11-06T18:41:16.835Z,31.27
2022-11-06T18:43:46.126Z,24.85
2022-11-06T18:46:17.120Z,25.63
2022-11-06T18:48:47.319Z,28.77
2022-11-06T18:51:33.521Z,28.35
2022-11-06T18:54:06.726Z,22.10
2022-11-06T18:59:16.069Z,20.05
2022-11-06T19:01:44.684Z,20.13
2022-11-06T19:04:38.495Z,19.23
2022-11-06T19:07:07.450Z,19.08
2022-11-06T19:09:38.488Z,18.13
2022-11-06T19:14:56.408Z,20.45
2022-11-06T19:22:16.481Z,19.10
2022-11-06T19:30:17.726Z,21.67
2022-11-06T19:33:44.425Z,22.20
2022-11-06T19:36:12.657Z,23.55
2022-11-06T19:38:42.521Z,23.02
2022-11-06T19:48:38.163Z,24.48
2022-11-06T19:51:10.883Z,26.50
2022-11-06T19:53:41.433Z,26.83
2022-11-06T19:59:25.796Z,26.50
2022-11-06T20:01:54.583Z,26.48
2022-11-06T20:04:32.624Z,26.73
2022-11-06T20:07:01.704Z,30.50
2022-11-06T20:09:37.943Z,29.00
2022-11-06T20:12:16.862Z,31.73
2022-11-06T20:14:50.809Z,29.20
2022-11-06T20:17:19.157Z,30.77
2022-11-06T20:19:48.227Z,30.85
2022-11-06T20:22:16.860Z,30.40
2022-11-06T20:24:45.825Z,30.40
2022-11-06T20:30:21.005Z,34.80
2022-11-06T20:32:49.994Z,33.15
2022-11-06T20:36:15.960Z,30.30
2022-11-06T20:41:32.096Z,42.42
2022-11-06T20:44:27.312Z,58.90
2022-11-06T20:47:02.392Z,65.47
2022-11-06T20:49:40.647Z,36.67
2022-11-06T20:52:14.455Z,28.40
2022-11-06T20:54:48.298Z,35.05
2022-11-06T20:58:11.857Z,40.20
2022-11-06T21:00:40.275Z,30.95
2022-11-06T21:03:08.952Z,31.73
2022-11-06T21:05:41.936Z,34.92
2022-11-06T21:09:27.125Z,34.50
2022-11-06T21:11:57.711Z,30.40
2022-11-06T21:14:43.557Z,29.40
2022-11-06T21:17:11.802Z,30.67
2022-11-06T21:19:40.550Z,29.33
2022-11-06T21:22:12.696Z,27.55
2022-11-06T21:24:42.424Z,28.38
2022-11-06T21:27:13.826Z,26.95
2022-11-06T21:29:42.650Z,26.50
2022-11-06T21:32:11.043Z,27.20
2022-11-06T21:34:39.639Z,27.20
2022-11-06T21:37:07.918Z,28.63
2022-11-06T21:39:37.029Z,27.77
2022-11-06T21:42:05.554Z,27.40
2022-11-06T21:44:37.379Z,27.73
2022-11-06T21:47:05.668Z,30.17
2022-11-06T21:49:36.546Z,29.75
2022-11-06T21:52:29.422Z,29.05
2022-11-06T21:55:18.260Z,27.48
2022-11-06T21:57:47.531Z,28.33
2022-11-06T22:00:16.725Z,29.38
2022-11-06T22:02:45.344Z,38.15
2022-11-06T22:05:15.541Z,32.55
2022-11-06T22:07:43.848Z,29.98
2022-11-06T22:10:12.592Z,30.58
2022-11-06T22:12:41.026Z,28.77
2022-11-06T22:15:18.679Z,27.88
2022-11-06T22:17:46.890Z,29.42
2022-11-06T22:20:15.585Z,29.33
2022-11-06T22:22:44.007Z,35.92
2022-11-06T22:25:15.458Z,52.70
2022-11-06T22:27:45.703Z,68.43
2022-11-06T22:31:12.349Z,62.33
2022-11-06T22:33:41.076Z,59.00
2022-11-06T22:36:12.962Z,59.25
2022-11-06T22:38:42.606Z,57.47
2022-11-06T22:41:36.428Z,52.85
2022-11-06T22:44:05.890Z,42.30
2022-11-06T22:46:35.063Z,42.90
2022-11-06T22:49:04.445Z,38.05
2022-11-06T22:51:34.807Z,42.85
2022-11-06T22:54:04.159Z,41.03
2022-11-06T22:56:33.421Z,40.80
2022-11-06T22:59:04.746Z,42.28
2022-11-06T23:01:40.168Z,44.80
2022-11-06T23:04:16.167Z,50.97
2022-11-06T23:06:45.795Z,50.90
2022-11-06T23:09:14.785Z,47.60
2022-11-06T23:11:46.254Z,49.88
2022-11-06T23:14:15.106Z,52.47
2022-11-06T23:16:59.033Z,55.95
2022-11-06T23:19:30.841Z,55.65
2022-11-06T23:22:18.712Z,53.30
2022-11-06T23:24:47.719Z,52.00
2022-11-06T23:27:15.963Z,55.30
2022-11-06T23:29:44.687Z,48.45
2022-11-06T23:32:13.002Z,42.55
2022-11-06T23:34:41.646Z,40.67
2022-11-06T23:37:09.978Z,42.40
2022-11-06T23:39:39.007Z,34.03
2022-11-06T23:42:07.349Z,32.50
2022-11-06T23:44:54.408Z,30.00
2022-11-06T23:47:22.801Z,29.60
2022-11-06T23:49:51.474Z,25.15
2022-11-06T23:52:19.866Z,21.88
2022-11-06T23:54:48.479Z,20.40
2022-11-06T23:57:17.173Z,19.25
2022-11-06T23:59:45.996Z,22.35
